sensor_id;sensor_type;location;lat;lon;timestamp;pressure;altitude;pressure_sealevel;temperature;humidity
45991;BME280;31721;41.740;-88.000;2023-02-12T00:00:06;99696.69;;;5.23;33.94
45991;BME280;31721;41.740;-88.000;2023-02-12T00:02:34;99694.26;;;5.16;33.91
45991;BME280;31721;41.740;-88.000;2023-02-12T00:05:02;99696.02;;;5.27;34.06
45991;BME280;31721;41.740;-88.000;2023-02-12T00:07:30;99695.64;;;5.27;34.28
45991;BME280;31721;41.740;-88.000;2023-02-12T00:09:58;99693.28;;;5.31;34.35
45991;BME280;31721;41.740;-88.000;2023-02-12T00:12:26;99691.81;;;5.20;34.41
45991;BME280;31721;41.740;-88.000;2023-02-12T00:14:54;99691.04;;;5.09;34.18
45991;BME280;31721;41.740;-88.000;2023-02-12T00:17:21;99693.99;;;5.15;34.34
45991;BME280;31721;41.740;-88.000;2023-02-12T00:19:49;99695.19;;;5.23;34.41
45991;BME280;31721;41.740;-88.000;2023-02-12T00:22:16;99697.55;;;5.32;34.48
45991;BME280;31721;41.740;-88.000;2023-02-12T00:24:44;99695.43;;;5.14;34.59
45991;BME280;31721;41.740;-88.000;2023-02-12T00:27:11;99694.83;;;5.16;34.45
45991;BME280;31721;41.740;-88.000;2023-02-12T00:29:43;99694.58;;;5.09;34.57
45991;BME280;31721;41.740;-88.000;2023-02-12T00:32:11;99695.04;;;5.11;34.62
45991;BME280;31721;41.740;-88.000;2023-02-12T00:34:39;99695.57;;;5.04;34.54
45991;BME280;31721;41.740;-88.000;2023-02-12T00:37:07;99692.91;;;5.01;34.64
45991;BME280;31721;41.740;-88.000;2023-02-12T00:39:34;99692.66;;;5.00;34.74
45991;BME280;31721;41.740;-88.000;2023-02-12T00:42:02;99690.98;;;4.87;35.07
45991;BME280;31721;41.740;-88.000;2023-02-12T00:44:29;99689.54;;;4.76;34.83
45991;BME280;31721;41.740;-88.000;2023-02-12T00:46:57;99690.35;;;4.72;35.10
45991;BME280;31721;41.740;-88.000;2023-02-12T00:49:25;99685.25;;;4.57;35.17
45991;BME280;31721;41.740;-88.000;2023-02-12T00:51:53;99683.32;;;4.62;35.27
45991;BME280;31721;41.740;-88.000;2023-02-12T00:54:21;99683.89;;;4.55;35.24
45991;BME280;31721;41.740;-88.000;2023-02-12T00:56:49;99682.53;;;4.51;35.63
45991;BME280;31721;41.740;-88.000;2023-02-12T00:59:17;99680.41;;;4.49;35.62
45991;BME280;31721;41.740;-88.000;2023-02-12T01:01:44;99678.39;;;4.39;35.58
45991;BME280;31721;41.740;-88.000;2023-02-12T01:04:11;99676.71;;;4.32;35.70
45991;BME280;31721;41.740;-88.000;2023-02-12T01:06:39;99677.57;;;4.16;36.02
45991;BME280;31721;41.740;-88.000;2023-02-12T01:09:07;99675.10;;;4.16;35.89
45991;BME280;31721;41.740;-88.000;2023-02-12T01:11:35;99672.19;;;4.16;35.92
45991;BME280;31721;41.740;-88.000;2023-02-12T01:14:03;99671.88;;;4.09;36.11
45991;BME280;31721;41.740;-88.000;2023-02-12T01:16:31;99663.43;;;4.02;36.33
45991;BME280;31721;41.740;-88.000;2023-02-12T01:18:59;99665.20;;;4.03;36.40
45991;BME280;31721;41.740;-88.000;2023-02-12T01:21:30;99660.89;;;3.96;36.41
45991;BME280;31721;41.740;-88.000;2023-02-12T01:23:59;99654.34;;;3.89;36.56
45991;BME280;31721;41.740;-88.000;2023-02-12T01:26:28;99647.71;;;3.63;37.13
45991;BME280;31721;41.740;-88.000;2023-02-12T01:28:58;99647.84;;;3.76;36.74
45991;BME280;31721;41.740;-88.000;2023-02-12T01:31:28;99641.74;;;3.64;37.14
45991;BME280;31721;41.740;-88.000;2023-02-12T01:33:57;99640.84;;;3.68;37.51
45991;BME280;31721;41.740;-88.000;2023-02-12T01:36:27;99642.24;;;3.68;37.37
45991;BME280;31721;41.740;-88.000;2023-02-12T01:38:55;99647.49;;;3.57;37.49
45991;BME280;31721;41.740;-88.000;2023-02-12T01:41:26;99647.33;;;3.58;37.24
45991;BME280;31721;41.740;-88.000;2023-02-12T01:44:13;99647.34;;;3.65;37.71
45991;BME280;31721;41.740;-88.000;2023-02-12T01:46:44;99643.71;;;3.65;37.91
45991;BME280;31721;41.740;-88.000;2023-02-12T01:49:15;99641.61;;;3.66;37.73
45991;BME280;31721;41.740;-88.000;2023-02-12T01:51:46;99638.99;;;3.64;37.79
45991;BME280;31721;41.740;-88.000;2023-02-12T01:54:16;99639.17;;;3.69;37.42
45991;BME280;31721;41.740;-88.000;2023-02-12T01:56:47;99639.18;;;3.47;37.57
45991;BME280;31721;41.740;-88.000;2023-02-12T01:59:16;99634.46;;;3.55;37.63
45991;BME280;31721;41.740;-88.000;2023-02-12T02:01:46;99632.96;;;3.41;37.43
45991;BME280;31721;41.740;-88.000;2023-02-12T02:04:16;99638.09;;;3.34;37.73
45991;BME280;31721;41.740;-88.000;2023-02-12T02:06:51;99636.66;;;3.35;37.82
45991;BME280;31721;41.740;-88.000;2023-02-12T02:09:21;99635.17;;;3.37;38.03
45991;BME280;31721;41.740;-88.000;2023-02-12T02:11:49;99635.07;;;3.22;38.25
45991;BME280;31721;41.740;-88.000;2023-02-12T02:14:16;99632.99;;;3.50;38.28
45991;BME280;31721;41.740;-88.000;2023-02-12T02:16:54;99631.41;;;3.56;38.05
45991;BME280;31721;41.740;-88.000;2023-02-12T02:19:34;99629.56;;;3.47;38.09
45991;BME280;31721;41.740;-88.000;2023-02-12T02:22:16;99628.35;;;3.41;37.85
45991;BME280;31721;41.740;-88.000;2023-02-12T02:25:02;99625.03;;;3.31;38.17
45991;BME280;31721;41.740;-88.000;2023-02-12T02:27:41;99621.08;;;3.37;38.00
45991;BME280;31721;41.740;-88.000;2023-02-12T02:30:25;99618.00;;;3.13;38.00
45991;BME280;31721;41.740;-88.000;2023-02-12T02:33:09;99613.29;;;3.01;38.61
45991;BME280;31721;41.740;-88.000;2023-02-12T02:35:44;99605.15;;;3.22;37.86
45991;BME280;31721;41.740;-88.000;2023-02-12T02:38:23;99610.04;;;2.92;38.42
45991;BME280;31721;41.740;-88.000;2023-02-12T02:41:00;99609.98;;;3.04;38.28
45991;BME280;31721;41.740;-88.000;2023-02-12T02:43:34;99607.19;;;3.00;38.31
45991;BME280;31721;41.740;-88.000;2023-02-12T02:46:06;99607.90;;;3.17;38.16
45991;BME280;31721;41.740;-88.000;2023-02-12T02:48:39;99600.16;;;2.90;37.92
45991;BME280;31721;41.740;-88.000;2023-02-12T02:51:12;99597.45;;;3.02;38.17
45991;BME280;31721;41.740;-88.000;2023-02-12T02:53:43;99596.93;;;2.85;38.19
45991;BME280;31721;41.740;-88.000;2023-02-12T02:56:15;99595.20;;;2.86;38.50
45991;BME280;31721;41.740;-88.000;2023-02-12T02:58:47;99592.43;;;2.86;38.42
45991;BME280;31721;41.740;-88.000;2023-02-12T03:01:19;99591.49;;;2.67;38.03
45991;BME280;31721;41.740;-88.000;2023-02-12T03:03:52;99590.01;;;2.88;37.99
45991;BME280;31721;41.740;-88.000;2023-02-12T03:06:29;99588.49;;;2.88;38.09
45991;BME280;31721;41.740;-88.000;2023-02-12T03:09:02;99585.32;;;2.90;38.34
45991;BME280;31721;41.740;-88.000;2023-02-12T03:11:33;99582.53;;;3.18;37.94
45991;BME280;31721;41.740;-88.000;2023-02-12T03:14:04;99582.83;;;2.78;38.27
45991;BME280;31721;41.740;-88.000;2023-02-12T03:16:38;99582.66;;;2.75;38.47
45991;BME280;31721;41.740;-88.000;2023-02-12T03:19:11;99581.40;;;2.77;38.26
45991;BME280;31721;41.740;-88.000;2023-02-12T03:21:45;99582.36;;;2.75;38.54
45991;BME280;31721;41.740;-88.000;2023-02-12T03:24:18;99583.10;;;2.72;38.21
45991;BME280;31721;41.740;-88.000;2023-02-12T03:26:51;99583.75;;;2.74;38.17
45991;BME280;31721;41.740;-88.000;2023-02-12T03:29:21;99580.05;;;2.73;38.41
45991;BME280;31721;41.740;-88.000;2023-02-12T03:31:57;99579.01;;;2.68;38.38
45991;BME280;31721;41.740;-88.000;2023-02-12T03:34:34;99574.04;;;2.60;38.43
45991;BME280;31721;41.740;-88.000;2023-02-12T03:37:11;99572.09;;;2.80;38.71
45991;BME280;31721;41.740;-88.000;2023-02-12T03:39:48;99575.00;;;2.78;38.64
45991;BME280;31721;41.740;-88.000;2023-02-12T03:42:26;99574.78;;;2.76;38.60
45991;BME280;31721;41.740;-88.000;2023-02-12T03:45:04;99576.32;;;2.71;38.56
45991;BME280;31721;41.740;-88.000;2023-02-12T03:47:40;99572.42;;;2.89;38.88
45991;BME280;31721;41.740;-88.000;2023-02-12T03:50:14;99573.26;;;2.72;38.81
45991;BME280;31721;41.740;-88.000;2023-02-12T03:52:44;99567.37;;;2.93;38.93
45991;BME280;31721;41.740;-88.000;2023-02-12T03:55:14;99565.00;;;3.09;38.78
45991;BME280;31721;41.740;-88.000;2023-02-12T03:57:46;99561.67;;;2.73;38.74
45991;BME280;31721;41.740;-88.000;2023-02-12T04:00:20;99561.78;;;3.03;38.74
45991;BME280;31721;41.740;-88.000;2023-02-12T04:02:48;99561.76;;;2.99;38.59
45991;BME280;31721;41.740;-88.000;2023-02-12T04:05:19;99560.31;;;2.68;38.67
45991;BME280;31721;41.740;-88.000;2023-02-12T04:07:48;99560.25;;;2.88;38.68
45991;BME280;31721;41.740;-88.000;2023-02-12T04:10:16;99557.30;;;2.82;38.76
45991;BME280;31721;41.740;-88.000;2023-02-12T04:12:52;99559.45;;;2.73;38.78
45991;BME280;31721;41.740;-88.000;2023-02-12T04:15:38;99565.12;;;2.84;39.02
45991;BME280;31721;41.740;-88.000;2023-02-12T04:18:15;99562.42;;;2.93;39.07
45991;BME280;31721;41.740;-88.000;2023-02-12T04:20:53;99560.09;;;2.95;39.02
45991;BME280;31721;41.740;-88.000;2023-02-12T04:23:39;99562.98;;;3.03;38.73
45991;BME280;31721;41.740;-88.000;2023-02-12T04:26:20;99562.36;;;3.12;38.81
45991;BME280;31721;41.740;-88.000;2023-02-12T04:28:58;99558.21;;;3.00;38.99
45991;BME280;31721;41.740;-88.000;2023-02-12T04:31:32;99555.47;;;2.69;38.99
45991;BME280;31721;41.740;-88.000;2023-02-12T04:34:08;99552.97;;;2.73;39.58
45991;BME280;31721;41.740;-88.000;2023-02-12T04:36:44;99548.54;;;2.44;39.22
45991;BME280;31721;41.740;-88.000;2023-02-12T04:39:18;99544.03;;;2.32;39.45
45991;BME280;31721;41.740;-88.000;2023-02-12T04:41:47;99540.67;;;2.20;39.54
45991;BME280;31721;41.740;-88.000;2023-02-12T04:44:17;99538.83;;;2.16;39.64
45991;BME280;31721;41.740;-88.000;2023-02-12T04:46:45;99538.47;;;2.15;39.70
45991;BME280;31721;41.740;-88.000;2023-02-12T04:49:15;99539.32;;;2.18;40.28
45991;BME280;31721;41.740;-88.000;2023-02-12T04:51:43;99535.74;;;2.08;40.21
45991;BME280;31721;41.740;-88.000;2023-02-12T04:54:12;99532.24;;;2.06;40.61
45991;BME280;31721;41.740;-88.000;2023-02-12T04:56:40;99528.83;;;1.98;40.57
45991;BME280;31721;41.740;-88.000;2023-02-12T04:59:09;99531.66;;;2.09;40.79
45991;BME280;31721;41.740;-88.000;2023-02-12T05:01:38;99524.24;;;1.97;40.75
45991;BME280;31721;41.740;-88.000;2023-02-12T05:04:07;99521.18;;;2.23;40.80
45991;BME280;31721;41.740;-88.000;2023-02-12T05:06:36;99515.36;;;2.04;40.92
45991;BME280;31721;41.740;-88.000;2023-02-12T05:09:05;99513.49;;;2.04;40.95
45991;BME280;31721;41.740;-88.000;2023-02-12T05:11:34;99512.63;;;1.81;40.85
45991;BME280;31721;41.740;-88.000;2023-02-12T05:14:01;99515.67;;;1.90;41.07
45991;BME280;31721;41.740;-88.000;2023-02-12T05:16:29;99517.61;;;1.93;41.16
45991;BME280;31721;41.740;-88.000;2023-02-12T05:18:57;99515.02;;;1.97;41.02
45991;BME280;31721;41.740;-88.000;2023-02-12T05:21:25;99515.38;;;1.89;41.16
45991;BME280;31721;41.740;-88.000;2023-02-12T05:23:52;99517.02;;;1.74;40.93
45991;BME280;31721;41.740;-88.000;2023-02-12T05:26:21;99514.70;;;1.91;41.41
45991;BME280;31721;41.740;-88.000;2023-02-12T05:28:49;99512.37;;;1.82;41.36
45991;BME280;31721;41.740;-88.000;2023-02-12T05:31:18;99510.56;;;1.79;41.43
45991;BME280;31721;41.740;-88.000;2023-02-12T05:33:47;99508.46;;;1.82;41.50
45991;BME280;31721;41.740;-88.000;2023-02-12T05:36:17;99505.03;;;1.77;41.50
45991;BME280;31721;41.740;-88.000;2023-02-12T05:38:45;99501.25;;;1.79;41.75
45991;BME280;31721;41.740;-88.000;2023-02-12T05:41:15;99500.78;;;1.84;41.97
45991;BME280;31721;41.740;-88.000;2023-02-12T05:43:43;99499.64;;;1.79;41.81
45991;BME280;31721;41.740;-88.000;2023-02-12T05:46:12;99493.49;;;1.88;41.76
45991;BME280;31721;41.740;-88.000;2023-02-12T05:48:40;99486.60;;;1.85;41.77
45991;BME280;31721;41.740;-88.000;2023-02-12T05:51:10;99480.82;;;1.94;41.82
45991;BME280;31721;41.740;-88.000;2023-02-12T05:53:38;99480.53;;;1.99;42.02
45991;BME280;31721;41.740;-88.000;2023-02-12T05:56:09;99480.64;;;1.99;41.91
45991;BME280;31721;41.740;-88.000;2023-02-12T05:58:38;99478.75;;;2.03;42.11
45991;BME280;31721;41.740;-88.000;2023-02-12T06:01:11;99476.64;;;1.97;41.90
45991;BME280;31721;41.740;-88.000;2023-02-12T06:03:39;99473.21;;;1.95;42.05
45991;BME280;31721;41.740;-88.000;2023-02-12T06:06:07;99468.92;;;2.19;42.15
45991;BME280;31721;41.740;-88.000;2023-02-12T06:08:35;99462.01;;;2.12;41.96
45991;BME280;31721;41.740;-88.000;2023-02-12T06:11:05;99462.97;;;2.13;42.32
45991;BME280;31721;41.740;-88.000;2023-02-12T06:13:33;99461.33;;;2.15;41.90
45991;BME280;31721;41.740;-88.000;2023-02-12T06:16:02;99461.94;;;2.14;41.98
45991;BME280;31721;41.740;-88.000;2023-02-12T06:18:30;99459.94;;;2.07;42.40
45991;BME280;31721;41.740;-88.000;2023-02-12T06:20:58;99449.77;;;2.13;42.21
45991;BME280;31721;41.740;-88.000;2023-02-12T06:23:26;99440.42;;;2.17;42.32
45991;BME280;31721;41.740;-88.000;2023-02-12T06:25:55;99439.05;;;1.99;42.08
45991;BME280;31721;41.740;-88.000;2023-02-12T06:28:23;99434.67;;;2.17;42.32
45991;BME280;31721;41.740;-88.000;2023-02-12T06:30:51;99433.52;;;2.15;42.40
45991;BME280;31721;41.740;-88.000;2023-02-12T06:33:19;99436.89;;;1.99;42.45
45991;BME280;31721;41.740;-88.000;2023-02-12T06:35:47;99432.41;;;2.05;42.25
45991;BME280;31721;41.740;-88.000;2023-02-12T06:38:14;99424.65;;;1.96;42.42
45991;BME280;31721;41.740;-88.000;2023-02-12T06:40:42;99419.25;;;1.84;42.21
45991;BME280;31721;41.740;-88.000;2023-02-12T06:43:09;99418.60;;;2.10;42.79
45991;BME280;31721;41.740;-88.000;2023-02-12T06:45:37;99418.53;;;2.07;42.72
45991;BME280;31721;41.740;-88.000;2023-02-12T06:48:05;99414.76;;;2.02;42.44
45991;BME280;31721;41.740;-88.000;2023-02-12T06:50:33;99412.62;;;2.05;42.46
45991;BME280;31721;41.740;-88.000;2023-02-12T06:53:01;99410.01;;;1.88;42.31
45991;BME280;31721;41.740;-88.000;2023-02-12T06:55:28;99409.00;;;1.87;42.53
45991;BME280;31721;41.740;-88.000;2023-02-12T06:57:56;99406.41;;;1.85;42.51
45991;BME280;31721;41.740;-88.000;2023-02-12T07:00:24;99403.39;;;1.77;42.43
45991;BME280;31721;41.740;-88.000;2023-02-12T07:02:53;99402.00;;;1.78;42.87
45991;BME280;31721;41.740;-88.000;2023-02-12T07:05:22;99398.82;;;1.88;42.87
45991;BME280;31721;41.740;-88.000;2023-02-12T07:07:50;99394.51;;;1.97;42.99
45991;BME280;31721;41.740;-88.000;2023-02-12T07:10:18;99390.84;;;1.90;42.64
45991;BME280;31721;41.740;-88.000;2023-02-12T07:12:46;99388.54;;;1.97;42.86
45991;BME280;31721;41.740;-88.000;2023-02-12T07:15:14;99387.39;;;1.95;42.86
45991;BME280;31721;41.740;-88.000;2023-02-12T07:17:41;99385.73;;;1.90;42.98
45991;BME280;31721;41.740;-88.000;2023-02-12T07:20:10;99385.06;;;1.78;43.04
45991;BME280;31721;41.740;-88.000;2023-02-12T07:22:37;99383.63;;;1.82;43.25
45991;BME280;31721;41.740;-88.000;2023-02-12T07:25:05;99379.63;;;1.82;43.53
45991;BME280;31721;41.740;-88.000;2023-02-12T07:27:35;99380.16;;;1.57;43.59
45991;BME280;31721;41.740;-88.000;2023-02-12T07:30:04;99382.55;;;1.50;43.29
45991;BME280;31721;41.740;-88.000;2023-02-12T07:32:32;99379.60;;;1.45;43.74
45991;BME280;31721;41.740;-88.000;2023-02-12T07:34:59;99376.51;;;1.42;43.67
45991;BME280;31721;41.740;-88.000;2023-02-12T07:37:27;99377.56;;;1.32;43.77
45991;BME280;31721;41.740;-88.000;2023-02-12T07:39:54;99381.38;;;1.36;43.85
45991;BME280;31721;41.740;-88.000;2023-02-12T07:42:22;99380.95;;;1.29;43.68
45991;BME280;31721;41.740;-88.000;2023-02-12T07:44:50;99377.34;;;1.40;44.17
45991;BME280;31721;41.740;-88.000;2023-02-12T07:47:17;99374.60;;;1.25;44.11
45991;BME280;31721;41.740;-88.000;2023-02-12T07:49:44;99372.01;;;1.22;44.36
45991;BME280;31721;41.740;-88.000;2023-02-12T07:52:12;99365.60;;;1.38;44.38
45991;BME280;31721;41.740;-88.000;2023-02-12T07:54:39;99364.75;;;1.22;44.49
45991;BME280;31721;41.740;-88.000;2023-02-12T07:57:07;99367.83;;;1.07;44.37
45991;BME280;31721;41.740;-88.000;2023-02-12T07:59:35;99368.07;;;1.13;44.38
45991;BME280;31721;41.740;-88.000;2023-02-12T08:02:02;99367.01;;;1.02;44.50
45991;BME280;31721;41.740;-88.000;2023-02-12T08:04:30;99369.84;;;0.98;44.44
45991;BME280;31721;41.740;-88.000;2023-02-12T08:06:57;99370.40;;;1.03;44.71
45991;BME280;31721;41.740;-88.000;2023-02-12T08:09:28;99368.53;;;1.10;44.74
45991;BME280;31721;41.740;-88.000;2023-02-12T08:11:56;99369.90;;;0.91;44.82
45991;BME280;31721;41.740;-88.000;2023-02-12T08:14:26;99370.02;;;0.95;45.16
45991;BME280;31721;41.740;-88.000;2023-02-12T08:16:53;99371.84;;;1.09;45.17
45991;BME280;31721;41.740;-88.000;2023-02-12T08:19:21;99370.29;;;1.05;45.12
45991;BME280;31721;41.740;-88.000;2023-02-12T08:21:51;99369.55;;;0.92;45.35
45991;BME280;31721;41.740;-88.000;2023-02-12T08:24:19;99368.13;;;0.98;45.15
45991;BME280;31721;41.740;-88.000;2023-02-12T08:26:46;99364.16;;;0.90;45.17
45991;BME280;31721;41.740;-88.000;2023-02-12T08:29:17;99362.03;;;0.84;45.17
45991;BME280;31721;41.740;-88.000;2023-02-12T08:31:47;99357.30;;;0.79;45.46
45991;BME280;31721;41.740;-88.000;2023-02-12T08:34:18;99353.43;;;0.68;45.55
45991;BME280;31721;41.740;-88.000;2023-02-12T08:36:47;99351.39;;;0.84;45.66
45991;BME280;31721;41.740;-88.000;2023-02-12T08:39:16;99349.17;;;0.77;45.60
45991;BME280;31721;41.740;-88.000;2023-02-12T08:41:45;99341.09;;;0.65;45.82
45991;BME280;31721;41.740;-88.000;2023-02-12T08:44:13;99337.23;;;0.61;45.58
45991;BME280;31721;41.740;-88.000;2023-02-12T08:46:44;99334.43;;;0.63;45.66
45991;BME280;31721;41.740;-88.000;2023-02-12T08:49:14;99328.14;;;0.57;45.81
45991;BME280;31721;41.740;-88.000;2023-02-12T08:51:44;99324.71;;;0.65;45.80
45991;BME280;31721;41.740;-88.000;2023-02-12T08:54:14;99325.05;;;0.63;45.80
45991;BME280;31721;41.740;-88.000;2023-02-12T08:56:42;99319.30;;;0.39;45.54
45991;BME280;31721;41.740;-88.000;2023-02-12T08:59:12;99315.59;;;0.27;45.90
45991;BME280;31721;41.740;-88.000;2023-02-12T09:01:40;99315.25;;;0.32;45.93
45991;BME280;31721;41.740;-88.000;2023-02-12T09:04:18;99315.07;;;0.24;46.07
45991;BME280;31721;41.740;-88.000;2023-02-12T09:06:47;99312.11;;;0.37;46.22
45991;BME280;31721;41.740;-88.000;2023-02-12T09:09:15;99313.67;;;0.50;46.28
45991;BME280;31721;41.740;-88.000;2023-02-12T09:11:43;99314.14;;;0.50;46.17
45991;BME280;31721;41.740;-88.000;2023-02-12T09:14:13;99311.34;;;0.66;46.10
45991;BME280;31721;41.740;-88.000;2023-02-12T09:16:43;99306.50;;;0.77;45.91
45991;BME280;31721;41.740;-88.000;2023-02-12T09:19:12;99309.37;;;0.81;45.74
45991;BME280;31721;41.740;-88.000;2023-02-12T09:21:40;99304.89;;;0.80;45.67
45991;BME280;31721;41.740;-88.000;2023-02-12T09:24:10;99301.56;;;0.71;45.92
45991;BME280;31721;41.740;-88.000;2023-02-12T09:26:38;99301.59;;;0.62;45.90
45991;BME280;31721;41.740;-88.000;2023-02-12T09:29:06;99302.77;;;0.65;45.92
45991;BME280;31721;41.740;-88.000;2023-02-12T09:31:34;99297.95;;;0.56;45.99
45991;BME280;31721;41.740;-88.000;2023-02-12T09:34:03;99297.47;;;0.50;46.00
45991;BME280;31721;41.740;-88.000;2023-02-12T09:36:32;99298.00;;;0.34;46.05
45991;BME280;31721;41.740;-88.000;2023-02-12T09:39:00;99301.68;;;0.35;46.06
45991;BME280;31721;41.740;-88.000;2023-02-12T09:42:48;99293.49;;;0.39;46.17
45991;BME280;31721;41.740;-88.000;2023-02-12T09:45:20;99287.23;;;0.30;46.17
45991;BME280;31721;41.740;-88.000;2023-02-12T09:47:55;99285.65;;;0.33;46.51
45991;BME280;31721;41.740;-88.000;2023-02-12T09:50:33;99281.93;;;0.35;46.43
45991;BME280;31721;41.740;-88.000;2023-02-12T09:53:03;99284.40;;;0.31;46.64
45991;BME280;31721;41.740;-88.000;2023-02-12T09:55:33;99282.76;;;0.21;46.55
45991;BME280;31721;41.740;-88.000;2023-02-12T09:58:04;99281.40;;;0.13;46.47
45991;BME280;31721;41.740;-88.000;2023-02-12T10:00:36;99275.81;;;0.13;46.60
45991;BME280;31721;41.740;-88.000;2023-02-12T10:03:11;99271.98;;;0.31;46.60
45991;BME280;31721;41.740;-88.000;2023-02-12T10:05:42;99274.11;;;0.30;46.55
45991;BME280;31721;41.740;-88.000;2023-02-12T10:08:30;99276.04;;;0.12;46.57
45991;BME280;31721;41.740;-88.000;2023-02-12T10:11:16;99274.75;;;0.11;46.55
45991;BME280;31721;41.740;-88.000;2023-02-12T10:13:53;99275.15;;;0.16;46.82
45991;BME280;31721;41.740;-88.000;2023-02-12T10:16:37;99272.29;;;0.23;46.78
45991;BME280;31721;41.740;-88.000;2023-02-12T10:19:22;99264.94;;;0.08;46.66
45991;BME280;31721;41.740;-88.000;2023-02-12T10:22:01;99265.96;;;-0.03;46.54
45991;BME280;31721;41.740;-88.000;2023-02-12T10:24:48;99267.99;;;-0.07;46.97
45991;BME280;31721;41.740;-88.000;2023-02-12T10:27:23;99270.10;;;0.17;46.88
45991;BME280;31721;41.740;-88.000;2023-02-12T10:29:52;99269.85;;;0.16;46.86
45991;BME280;31721;41.740;-88.000;2023-02-12T10:32:26;99267.47;;;0.11;46.69
45991;BME280;31721;41.740;-88.000;2023-02-12T10:34:56;99268.53;;;0.30;46.80
45991;BME280;31721;41.740;-88.000;2023-02-12T10:37:31;99268.63;;;0.10;46.79
45991;BME280;31721;41.740;-88.000;2023-02-12T10:40:13;99274.33;;;0.25;46.95
45991;BME280;31721;41.740;-88.000;2023-02-12T10:42:44;99273.49;;;0.25;46.89
45991;BME280;31721;41.740;-88.000;2023-02-12T10:45:14;99276.62;;;0.22;46.98
45991;BME280;31721;41.740;-88.000;2023-02-12T10:47:42;99272.76;;;0.22;46.91
45991;BME280;31721;41.740;-88.000;2023-02-12T10:50:24;99275.05;;;0.05;46.53
45991;BME280;31721;41.740;-88.000;2023-02-12T10:53:00;99273.88;;;0.11;46.73
45991;BME280;31721;41.740;-88.000;2023-02-12T10:55:29;99271.10;;;0.17;46.76
45991;BME280;31721;41.740;-88.000;2023-02-12T10:57:58;99271.75;;;0.11;46.71
45991;BME280;31721;41.740;-88.000;2023-02-12T11:00:29;99270.79;;;-0.08;46.83
45991;BME280;31721;41.740;-88.000;2023-02-12T11:03:03;99266.76;;;-0.23;46.68
45991;BME280;31721;41.740;-88.000;2023-02-12T11:05:33;99268.04;;;-0.32;47.07
45991;BME280;31721;41.740;-88.000;2023-02-12T11:08:01;99266.01;;;-0.25;47.36
45991;BME280;31721;41.740;-88.000;2023-02-12T11:10:32;99262.14;;;-0.13;47.42
45991;BME280;31721;41.740;-88.000;2023-02-12T11:13:02;99261.42;;;-0.20;47.32
45991;BME280;31721;41.740;-88.000;2023-02-12T11:15:37;99258.37;;;-0.07;47.36
45991;BME280;31721;41.740;-88.000;2023-02-12T11:18:21;99255.93;;;0.02;47.20
45991;BME280;31721;41.740;-88.000;2023-02-12T11:20:51;99251.80;;;0.05;47.09
45991;BME280;31721;41.740;-88.000;2023-02-12T11:23:24;99246.24;;;0.02;47.21
45991;BME280;31721;41.740;-88.000;2023-02-12T11:25:57;99248.41;;;0.02;47.25
45991;BME280;31721;41.740;-88.000;2023-02-12T11:28:26;99255.98;;;-0.20;47.15
45991;BME280;31721;41.740;-88.000;2023-02-12T11:30:57;99259.68;;;-0.22;47.05
45991;BME280;31721;41.740;-88.000;2023-02-12T11:33:28;99264.26;;;-0.21;47.37
45991;BME280;31721;41.740;-88.000;2023-02-12T11:36:00;99264.33;;;-0.19;47.26
45991;BME280;31721;41.740;-88.000;2023-02-12T11:38:32;99263.71;;;-0.25;47.45
45991;BME280;31721;41.740;-88.000;2023-02-12T11:41:06;99263.63;;;-0.27;47.31
45991;BME280;31721;41.740;-88.000;2023-02-12T11:43:36;99258.27;;;-0.18;47.36
45991;BME280;31721;41.740;-88.000;2023-02-12T11:46:06;99252.11;;;-0.19;47.54
45991;BME280;31721;41.740;-88.000;2023-02-12T11:48:38;99245.98;;;-0.12;47.56
45991;BME280;31721;41.740;-88.000;2023-02-12T11:51:08;99243.51;;;-0.03;47.52
45991;BME280;31721;41.740;-88.000;2023-02-12T11:53:48;99237.12;;;-0.18;47.34
45991;BME280;31721;41.740;-88.000;2023-02-12T11:56:17;99234.69;;;-0.11;47.48
45991;BME280;31721;41.740;-88.000;2023-02-12T11:58:46;99229.76;;;-0.24;47.45
45991;BME280;31721;41.740;-88.000;2023-02-12T12:01:17;99224.59;;;-0.33;47.32
45991;BME280;31721;41.740;-88.000;2023-02-12T12:03:53;99220.32;;;-0.34;47.32
45991;BME280;31721;41.740;-88.000;2023-02-12T12:06:33;99212.29;;;-0.27;47.54
45991;BME280;31721;41.740;-88.000;2023-02-12T12:09:09;99210.86;;;-0.30;47.40
45991;BME280;31721;41.740;-88.000;2023-02-12T12:11:46;99214.56;;;-0.53;47.30
45991;BME280;31721;41.740;-88.000;2023-02-12T12:14:25;99211.66;;;-0.52;47.78
45991;BME280;31721;41.740;-88.000;2023-02-12T12:16:59;99212.27;;;-0.46;47.91
45991;BME280;31721;41.740;-88.000;2023-02-12T12:19:36;99211.29;;;-0.46;47.91
45991;BME280;31721;41.740;-88.000;2023-02-12T12:22:09;99211.70;;;-0.44;47.97
45991;BME280;31721;41.740;-88.000;2023-02-12T12:24:45;99215.10;;;-0.23;47.80
45991;BME280;31721;41.740;-88.000;2023-02-12T12:27:21;99213.58;;;-0.36;47.64
45991;BME280;31721;41.740;-88.000;2023-02-12T12:29:56;99206.78;;;-0.48;47.52
45991;BME280;31721;41.740;-88.000;2023-02-12T12:32:28;99203.79;;;-0.53;47.46
45991;BME280;31721;41.740;-88.000;2023-02-12T12:34:57;99196.06;;;-0.65;47.74
45991;BME280;31721;41.740;-88.000;2023-02-12T12:37:32;99189.90;;;-0.74;47.83
45991;BME280;31721;41.740;-88.000;2023-02-12T12:40:19;99185.91;;;-0.75;48.09
45991;BME280;31721;41.740;-88.000;2023-02-12T12:43:14;99184.19;;;-0.74;48.29
45991;BME280;31721;41.740;-88.000;2023-02-12T12:46:12;99183.24;;;-0.74;48.33
45991;BME280;31721;41.740;-88.000;2023-02-12T12:48:51;99182.85;;;-0.69;48.58
45991;BME280;31721;41.740;-88.000;2023-02-12T12:51:34;99176.91;;;-0.63;48.48
45991;BME280;31721;41.740;-88.000;2023-02-12T12:54:14;99173.50;;;-0.55;48.44
45991;BME280;31721;41.740;-88.000;2023-02-12T12:56:54;99175.08;;;-0.66;48.46
45991;BME280;31721;41.740;-88.000;2023-02-12T12:59:45;99173.48;;;-0.77;48.45
45991;BME280;31721;41.740;-88.000;2023-02-12T13:02:49;99174.89;;;-0.66;48.74
45991;BME280;31721;41.740;-88.000;2023-02-12T13:05:45;99174.65;;;-0.75;48.75
45991;BME280;31721;41.740;-88.000;2023-02-12T13:08:31;99177.21;;;-0.78;48.86
45991;BME280;31721;41.740;-88.000;2023-02-12T13:11:10;99183.72;;;-0.70;49.09